Spavinaw, OK (74366)

9:31 AM CST on December 26, 2014 (GMT -0600)
broken "S" | Change Station
CLOSE
Current Station
Personal Weather Station
Location: Vinita, OK
Elevation: 768 ft
Nearby Weather Stations

Elev 768 ft 36.53 °N, 95.04 °W | Updated 3 minutes ago

Partly Cloudy
Partly Cloudy
55.8 °F
Feels Like 55.8 °F
N
17.6
Wind Variable Wind from South

Today
High -- | Low -- °F
--% Chance of Precip.
Yesterday
High -- | Low -- °F
Precip. -- in
7:30 AM 5:11 PM
Waxing Crescent, 26% visible
Pressure 29.99 in
Visibility 10.0 miles
Clouds Clear
Dew Point 49 °F
Humidity 77%
Rainfall 0.00 in
Snow Depth Not available.
UV 1 out of 12
Pollen 6.50 out of 12
Air Quality Not available.
Flu Activity Not available.
METAR KGMJ 261515Z AUTO 17007KT 10SM CLR 12/07 A2999 RMK AO2

More Conditions Fewer Conditions

Pressure 29.99 in
Visibility 10.0 miles
Clouds Clear
Dew Point 49 °F
Humidity 77%
Rainfall 0.00 in
Snow Depth Not available.
UV 1 out of 12
Pollen 6.50 out of 12
Air Quality Not available.
Flu Activity Not available.
METAR KGMJ 261515Z AUTO 17007KT 10SM CLR 12/07 A2999 RMK AO2

More Conditions Fewer Conditions

10-Day Weather Forecast

Almanac

Astronomy

Dec. 26, 2014 Rise Set
Actual Time
Civil Twilight
Nautical Twilight
Astronomical Twilight
Moon
Length of Visible Light
Length of Day
Tomorrow will be .
, % of the Moon is Illuminated

Today's Extremes

State Highs State Lows

Community

WunderPhotos

Upload Photos

1,780,608 photos uploaded!

WunderBlogs® & News

Nearby

Air Quality

  Air Quality AQ Index Pollutant
Not available.

Snow Depth

Station Depth Elevation

Earthquake Activity

City Distance Mag. Time & Date
Minimum magnitude displayed is 2.5.

Coastal Water Temperatures

Place Temperature

Nearby Weather Stations